sensor_id;sensor_type;location;lat;lon;timestamp;temperature;humidity
49679;DHT22;35570;48.218;16.326;2024-02-21T00:01:05;8.40;99.90
49679;DHT22;35570;48.218;16.326;2024-02-21T00:03:31;8.40;99.80
49679;DHT22;35570;48.218;16.326;2024-02-21T00:05:57;8.40;99.70
49679;DHT22;35570;48.218;16.326;2024-02-21T00:08:22;8.40;99.70
49679;DHT22;35570;48.218;16.326;2024-02-21T00:10:48;8.30;99.80
49679;DHT22;35570;48.218;16.326;2024-02-21T00:13:14;8.40;99.90
49679;DHT22;35570;48.218;16.326;2024-02-21T00:15:40;8.40;99.80
49679;DHT22;35570;48.218;16.326;2024-02-21T00:18:06;8.30;99.90
49679;DHT22;35570;48.218;16.326;2024-02-21T00:20:31;8.40;99.90
49679;DHT22;35570;48.218;16.326;2024-02-21T00:22:57;8.40;99.70
49679;DHT22;35570;48.218;16.326;2024-02-21T00:25:22;8.40;99.60
49679;DHT22;35570;48.218;16.326;2024-02-21T00:27:48;8.40;99.80
49679;DHT22;35570;48.218;16.326;2024-02-21T00:30:14;8.40;99.80
49679;DHT22;35570;48.218;16.326;2024-02-21T00:32:39;8.40;99.60
49679;DHT22;35570;48.218;16.326;2024-02-21T00:35:05;8.40;99.30
49679;DHT22;35570;48.218;16.326;2024-02-21T00:37:31;8.40;99.50
49679;DHT22;35570;48.218;16.326;2024-02-21T00:39:57;8.40;99.40
49679;DHT22;35570;48.218;16.326;2024-02-21T00:42:22;8.40;99.40
49679;DHT22;35570;48.218;16.326;2024-02-21T00:44:48;8.40;99.40
49679;DHT22;35570;48.218;16.326;2024-02-21T00:47:14;8.40;99.20
49679;DHT22;35570;48.218;16.326;2024-02-21T00:49:39;8.40;99.20
49679;DHT22;35570;48.218;16.326;2024-02-21T00:52:05;8.40;98.90
49679;DHT22;35570;48.218;16.326;2024-02-21T00:54:31;8.40;98.70
49679;DHT22;35570;48.218;16.326;2024-02-21T00:56:57;8.30;98.70
49679;DHT22;35570;48.218;16.326;2024-02-21T00:59:23;8.30;98.70
49679;DHT22;35570;48.218;16.326;2024-02-21T01:01:48;8.30;98.90
49679;DHT22;35570;48.218;16.326;2024-02-21T01:04:14;8.30;98.80
49679;DHT22;35570;48.218;16.326;2024-02-21T01:06:39;8.30;98.90
49679;DHT22;35570;48.218;16.326;2024-02-21T01:09:08;8.30;98.50
49679;DHT22;35570;48.218;16.326;2024-02-21T01:11:33;8.40;98.60
49679;DHT22;35570;48.218;16.326;2024-02-21T01:13:59;8.40;98.80
49679;DHT22;35570;48.218;16.326;2024-02-21T01:16:26;8.40;98.70
49679;DHT22;35570;48.218;16.326;2024-02-21T01:18:51;8.40;98.40
49679;DHT22;35570;48.218;16.326;2024-02-21T01:21:17;8.40;98.20
49679;DHT22;35570;48.218;16.326;2024-02-21T01:23:43;8.40;98.30
49679;DHT22;35570;48.218;16.326;2024-02-21T01:26:08;8.30;98.20
49679;DHT22;35570;48.218;16.326;2024-02-21T01:28:34;8.30;98.30
49679;DHT22;35570;48.218;16.326;2024-02-21T01:31:01;8.30;98.20
49679;DHT22;35570;48.218;16.326;2024-02-21T01:33:26;8.30;98.30
49679;DHT22;35570;48.218;16.326;2024-02-21T01:35:52;8.30;98.20
49679;DHT22;35570;48.218;16.326;2024-02-21T01:38:18;8.30;98.40
49679;DHT22;35570;48.218;16.326;2024-02-21T01:40:43;8.30;98.40
49679;DHT22;35570;48.218;16.326;2024-02-21T01:43:19;8.30;98.40
49679;DHT22;35570;48.218;16.326;2024-02-21T01:45:54;8.30;98.40
49679;DHT22;35570;48.218;16.326;2024-02-21T01:48:22;8.30;98.40
49679;DHT22;35570;48.218;16.326;2024-02-21T01:50:49;8.30;98.50
49679;DHT22;35570;48.218;16.326;2024-02-21T01:53:20;8.30;98.50
49679;DHT22;35570;48.218;16.326;2024-02-21T01:55:46;8.30;98.40
49679;DHT22;35570;48.218;16.326;2024-02-21T01:58:16;8.30;98.50
49679;DHT22;35570;48.218;16.326;2024-02-21T02:00:43;8.30;98.50
49679;DHT22;35570;48.218;16.326;2024-02-21T02:03:13;8.30;98.50
49679;DHT22;35570;48.218;16.326;2024-02-21T02:05:44;8.30;98.60
49679;DHT22;35570;48.218;16.326;2024-02-21T02:08:10;8.30;98.30
49679;DHT22;35570;48.218;16.326;2024-02-21T02:10:37;8.30;98.30
49679;DHT22;35570;48.218;16.326;2024-02-21T02:13:02;8.30;98.20
49679;DHT22;35570;48.218;16.326;2024-02-21T02:15:38;8.30;98.20
49679;DHT22;35570;48.218;16.326;2024-02-21T02:18:04;8.30;98.40
49679;DHT22;35570;48.218;16.326;2024-02-21T02:20:29;8.30;98.40
49679;DHT22;35570;48.218;16.326;2024-02-21T02:22:55;8.30;98.30
49679;DHT22;35570;48.218;16.326;2024-02-21T02:25:21;8.30;98.40
49679;DHT22;35570;48.218;16.326;2024-02-21T02:27:46;8.20;98.30
49679;DHT22;35570;48.218;16.326;2024-02-21T02:30:12;8.20;98.30
49679;DHT22;35570;48.218;16.326;2024-02-21T02:32:38;8.20;98.50
49679;DHT22;35570;48.218;16.326;2024-02-21T02:35:04;8.20;98.50
49679;DHT22;35570;48.218;16.326;2024-02-21T02:37:30;8.20;98.20
49679;DHT22;35570;48.218;16.326;2024-02-21T02:39:55;8.20;98.10
49679;DHT22;35570;48.218;16.326;2024-02-21T02:42:21;8.20;98.10
49679;DHT22;35570;48.218;16.326;2024-02-21T02:44:46;8.20;98.30
49679;DHT22;35570;48.218;16.326;2024-02-21T02:47:12;8.20;98.20
49679;DHT22;35570;48.218;16.326;2024-02-21T02:49:38;8.20;98.10
49679;DHT22;35570;48.218;16.326;2024-02-21T02:52:03;8.20;98.30
49679;DHT22;35570;48.218;16.326;2024-02-21T02:54:29;8.10;98.40
49679;DHT22;35570;48.218;16.326;2024-02-21T02:56:55;8.10;98.40
49679;DHT22;35570;48.218;16.326;2024-02-21T02:59:20;8.10;98.50
49679;DHT22;35570;48.218;16.326;2024-02-21T03:01:46;8.10;98.30
49679;DHT22;35570;48.218;16.326;2024-02-21T03:04:12;8.20;98.30
49679;DHT22;35570;48.218;16.326;2024-02-21T03:06:38;8.20;98.40
49679;DHT22;35570;48.218;16.326;2024-02-21T03:09:03;8.10;98.50
49679;DHT22;35570;48.218;16.326;2024-02-21T03:11:34;8.20;98.20
49679;DHT22;35570;48.218;16.326;2024-02-21T03:13:59;8.20;98.10
49679;DHT22;35570;48.218;16.326;2024-02-21T03:16:25;8.10;98.20
49679;DHT22;35570;48.218;16.326;2024-02-21T03:18:51;8.10;98.40
49679;DHT22;35570;48.218;16.326;2024-02-21T03:21:16;8.10;98.40
49679;DHT22;35570;48.218;16.326;2024-02-21T03:23:42;8.10;98.40
49679;DHT22;35570;48.218;16.326;2024-02-21T03:26:07;8.10;98.40
49679;DHT22;35570;48.218;16.326;2024-02-21T03:28:33;8.10;98.20
49679;DHT22;35570;48.218;16.326;2024-02-21T03:30:58;8.00;98.50
49679;DHT22;35570;48.218;16.326;2024-02-21T03:33:24;8.10;98.50
49679;DHT22;35570;48.218;16.326;2024-02-21T03:35:50;8.00;98.60
49679;DHT22;35570;48.218;16.326;2024-02-21T03:38:15;8.00;98.60
49679;DHT22;35570;48.218;16.326;2024-02-21T03:40:41;8.00;98.80
49679;DHT22;35570;48.218;16.326;2024-02-21T03:43:07;8.00;98.90
49679;DHT22;35570;48.218;16.326;2024-02-21T03:45:32;8.00;99.00
49679;DHT22;35570;48.218;16.326;2024-02-21T03:47:58;7.90;99.20
49679;DHT22;35570;48.218;16.326;2024-02-21T03:50:24;7.90;99.20
49679;DHT22;35570;48.218;16.326;2024-02-21T03:52:52;7.90;99.20
49679;DHT22;35570;48.218;16.326;2024-02-21T03:55:17;7.90;99.30
49679;DHT22;35570;48.218;16.326;2024-02-21T03:57:44;7.90;99.50
49679;DHT22;35570;48.218;16.326;2024-02-21T04:00:10;7.80;99.70
49679;DHT22;35570;48.218;16.326;2024-02-21T04:02:38;7.90;99.70
49679;DHT22;35570;48.218;16.326;2024-02-21T04:05:04;7.90;99.90
49679;DHT22;35570;48.218;16.326;2024-02-21T04:07:30;7.90;99.90
49679;DHT22;35570;48.218;16.326;2024-02-21T04:09:56;7.80;99.90
49679;DHT22;35570;48.218;16.326;2024-02-21T04:12:21;7.80;99.90
49679;DHT22;35570;48.218;16.326;2024-02-21T04:14:47;7.80;99.90
49679;DHT22;35570;48.218;16.326;2024-02-21T04:17:13;7.80;99.90
49679;DHT22;35570;48.218;16.326;2024-02-21T04:19:38;7.80;99.90
49679;DHT22;35570;48.218;16.326;2024-02-21T04:22:04;7.70;99.90
49679;DHT22;35570;48.218;16.326;2024-02-21T04:24:29;7.70;99.90
49679;DHT22;35570;48.218;16.326;2024-02-21T04:26:55;7.70;99.90
49679;DHT22;35570;48.218;16.326;2024-02-21T04:29:20;7.70;99.90
49679;DHT22;35570;48.218;16.326;2024-02-21T04:31:46;7.80;99.90
49679;DHT22;35570;48.218;16.326;2024-02-21T04:34:11;7.80;99.90
49679;DHT22;35570;48.218;16.326;2024-02-21T04:36:37;7.80;99.90
49679;DHT22;35570;48.218;16.326;2024-02-21T04:39:03;7.70;99.90
49679;DHT22;35570;48.218;16.326;2024-02-21T04:41:28;7.80;99.90
49679;DHT22;35570;48.218;16.326;2024-02-21T04:43:54;7.80;99.90
49679;DHT22;35570;48.218;16.326;2024-02-21T04:46:19;7.80;99.90
49679;DHT22;35570;48.218;16.326;2024-02-21T04:48:45;7.80;99.90
49679;DHT22;35570;48.218;16.326;2024-02-21T04:51:11;7.80;99.90
49679;DHT22;35570;48.218;16.326;2024-02-21T04:53:38;7.90;99.90
49679;DHT22;35570;48.218;16.326;2024-02-21T04:56:04;7.90;99.80
49679;DHT22;35570;48.218;16.326;2024-02-21T04:58:29;7.90;99.80
49679;DHT22;35570;48.218;16.326;2024-02-21T05:00:55;7.90;99.80
49679;DHT22;35570;48.218;16.326;2024-02-21T05:03:21;7.90;99.70
49679;DHT22;35570;48.218;16.326;2024-02-21T05:05:47;7.90;99.70
49679;DHT22;35570;48.218;16.326;2024-02-21T05:08:12;7.90;99.50
49679;DHT22;35570;48.218;16.326;2024-02-21T05:10:38;7.90;99.30
49679;DHT22;35570;48.218;16.326;2024-02-21T05:13:03;7.90;99.30
49679;DHT22;35570;48.218;16.326;2024-02-21T05:15:29;7.90;99.20
49679;DHT22;35570;48.218;16.326;2024-02-21T05:17:55;7.90;99.20
49679;DHT22;35570;48.218;16.326;2024-02-21T05:20:20;7.90;99.40
49679;DHT22;35570;48.218;16.326;2024-02-21T05:22:46;7.90;99.20
49679;DHT22;35570;48.218;16.326;2024-02-21T05:25:12;7.90;99.20
49679;DHT22;35570;48.218;16.326;2024-02-21T05:27:37;7.90;99.30
49679;DHT22;35570;48.218;16.326;2024-02-21T05:30:04;7.90;99.30
49679;DHT22;35570;48.218;16.326;2024-02-21T05:32:32;7.90;99.40
49679;DHT22;35570;48.218;16.326;2024-02-21T05:34:57;7.90;99.10
49679;DHT22;35570;48.218;16.326;2024-02-21T05:37:23;7.90;99.00
49679;DHT22;35570;48.218;16.326;2024-02-21T05:39:49;8.00;99.10
49679;DHT22;35570;48.218;16.326;2024-02-21T05:42:14;8.00;98.90
49679;DHT22;35570;48.218;16.326;2024-02-21T05:44:40;8.00;98.80
49679;DHT22;35570;48.218;16.326;2024-02-21T05:47:06;8.00;98.70
49679;DHT22;35570;48.218;16.326;2024-02-21T05:49:35;8.00;98.70
49679;DHT22;35570;48.218;16.326;2024-02-21T05:52:01;8.10;98.40
49679;DHT22;35570;48.218;16.326;2024-02-21T05:54:26;8.10;98.50
49679;DHT22;35570;48.218;16.326;2024-02-21T05:56:52;8.00;98.20
49679;DHT22;35570;48.218;16.326;2024-02-21T05:59:19;8.00;98.40
49679;DHT22;35570;48.218;16.326;2024-02-21T06:01:44;8.00;98.10
49679;DHT22;35570;48.218;16.326;2024-02-21T06:04:10;8.10;97.70
49679;DHT22;35570;48.218;16.326;2024-02-21T06:06:35;8.10;98.00
49679;DHT22;35570;48.218;16.326;2024-02-21T06:09:01;8.20;97.50
49679;DHT22;35570;48.218;16.326;2024-02-21T06:11:28;8.00;96.90
49679;DHT22;35570;48.218;16.326;2024-02-21T06:13:54;8.10;96.90
49679;DHT22;35570;48.218;16.326;2024-02-21T06:16:19;8.10;96.90
49679;DHT22;35570;48.218;16.326;2024-02-21T06:18:45;8.10;96.90
49679;DHT22;35570;48.218;16.326;2024-02-21T06:21:11;8.10;96.70
49679;DHT22;35570;48.218;16.326;2024-02-21T06:23:37;8.10;96.80
49679;DHT22;35570;48.218;16.326;2024-02-21T06:26:03;8.10;96.60
49679;DHT22;35570;48.218;16.326;2024-02-21T06:28:29;8.10;96.60
49679;DHT22;35570;48.218;16.326;2024-02-21T06:30:54;8.10;96.50
49679;DHT22;35570;48.218;16.326;2024-02-21T06:33:20;8.10;96.60
49679;DHT22;35570;48.218;16.326;2024-02-21T06:35:50;8.10;96.70
49679;DHT22;35570;48.218;16.326;2024-02-21T06:38:18;8.10;96.50
49679;DHT22;35570;48.218;16.326;2024-02-21T06:40:44;8.20;96.50
49679;DHT22;35570;48.218;16.326;2024-02-21T06:43:16;8.20;96.20
49679;DHT22;35570;48.218;16.326;2024-02-21T06:45:41;8.20;96.10
49679;DHT22;35570;48.218;16.326;2024-02-21T06:48:07;8.10;96.20
49679;DHT22;35570;48.218;16.326;2024-02-21T06:50:33;8.10;96.50
49679;DHT22;35570;48.218;16.326;2024-02-21T06:52:59;8.10;96.10
49679;DHT22;35570;48.218;16.326;2024-02-21T06:55:24;8.10;96.30
49679;DHT22;35570;48.218;16.326;2024-02-21T06:57:50;8.20;96.00
49679;DHT22;35570;48.218;16.326;2024-02-21T07:00:16;8.10;95.90
49679;DHT22;35570;48.218;16.326;2024-02-21T07:02:42;8.10;96.10
49679;DHT22;35570;48.218;16.326;2024-02-21T07:05:07;8.20;95.90
49679;DHT22;35570;48.218;16.326;2024-02-21T07:07:33;8.20;95.80
49679;DHT22;35570;48.218;16.326;2024-02-21T07:10:00;8.20;95.90
49679;DHT22;35570;48.218;16.326;2024-02-21T07:12:26;8.20;95.70
49679;DHT22;35570;48.218;16.326;2024-02-21T07:14:51;8.20;95.90
49679;DHT22;35570;48.218;16.326;2024-02-21T07:17:17;8.20;95.70
49679;DHT22;35570;48.218;16.326;2024-02-21T07:19:43;8.20;96.60
49679;DHT22;35570;48.218;16.326;2024-02-21T07:22:08;8.30;95.70
49679;DHT22;35570;48.218;16.326;2024-02-21T07:24:34;8.30;95.50
49679;DHT22;35570;48.218;16.326;2024-02-21T07:27:00;8.40;95.40
49679;DHT22;35570;48.218;16.326;2024-02-21T07:29:30;8.40;95.70
49679;DHT22;35570;48.218;16.326;2024-02-21T07:31:56;8.50;95.20
49679;DHT22;35570;48.218;16.326;2024-02-21T07:34:22;8.60;94.80
49679;DHT22;35570;48.218;16.326;2024-02-21T07:36:47;8.70;94.60
49679;DHT22;35570;48.218;16.326;2024-02-21T07:39:13;8.70;94.60
49679;DHT22;35570;48.218;16.326;2024-02-21T07:41:38;8.90;94.40
49679;DHT22;35570;48.218;16.326;2024-02-21T07:44:05;8.90;94.10
49679;DHT22;35570;48.218;16.326;2024-02-21T07:46:31;9.00;94.10
49679;DHT22;35570;48.218;16.326;2024-02-21T07:48:56;9.00;93.60
49679;DHT22;35570;48.218;16.326;2024-02-21T07:51:22;9.00;93.40
49679;DHT22;35570;48.218;16.326;2024-02-21T07:53:47;9.00;93.30
49679;DHT22;35570;48.218;16.326;2024-02-21T07:56:14;9.10;93.20
49679;DHT22;35570;48.218;16.326;2024-02-21T07:58:41;9.10;93.50
49679;DHT22;35570;48.218;16.326;2024-02-21T08:01:07;9.30;93.20
49679;DHT22;35570;48.218;16.326;2024-02-21T08:03:33;9.40;92.60
49679;DHT22;35570;48.218;16.326;2024-02-21T08:05:59;9.60;92.60
49679;DHT22;35570;48.218;16.326;2024-02-21T08:08:24;9.70;92.50
49679;DHT22;35570;48.218;16.326;2024-02-21T08:10:50;9.60;91.70
49679;DHT22;35570;48.218;16.326;2024-02-21T08:13:16;9.70;91.50
49679;DHT22;35570;48.218;16.326;2024-02-21T08:15:42;9.70;91.50
49679;DHT22;35570;48.218;16.326;2024-02-21T08:18:08;9.70;91.50
49679;DHT22;35570;48.218;16.326;2024-02-21T08:20:34;9.90;90.90
49679;DHT22;35570;48.218;16.326;2024-02-21T08:23:00;10.20;92.80
49679;DHT22;35570;48.218;16.326;2024-02-21T08:25:26;10.70;91.20
49679;DHT22;35570;48.218;16.326;2024-02-21T08:27:53;11.00;91.20
49679;DHT22;35570;48.218;16.326;2024-02-21T08:30:19;11.10;88.40
49679;DHT22;35570;48.218;16.326;2024-02-21T08:32:45;11.10;87.20
49679;DHT22;35570;48.218;16.326;2024-02-21T08:35:11;11.10;85.50
49679;DHT22;35570;48.218;16.326;2024-02-21T08:37:37;11.00;85.80
49679;DHT22;35570;48.218;16.326;2024-02-21T08:40:03;11.00;84.70
49679;DHT22;35570;48.218;16.326;2024-02-21T08:42:36;10.90;85.40
49679;DHT22;35570;48.218;16.326;2024-02-21T08:45:04;10.90;85.00
49679;DHT22;35570;48.218;16.326;2024-02-21T08:47:30;10.80;85.20
49679;DHT22;35570;48.218;16.326;2024-02-21T08:49:55;10.80;85.20
49679;DHT22;35570;48.218;16.326;2024-02-21T08:52:21;10.80;85.20
49679;DHT22;35570;48.218;16.326;2024-02-21T08:54:46;10.90;84.80
49679;DHT22;35570;48.218;16.326;2024-02-21T08:57:12;10.90;85.20
49679;DHT22;35570;48.218;16.326;2024-02-21T08:59:39;10.90;84.70
49679;DHT22;35570;48.218;16.326;2024-02-21T09:02:05;11.10;83.90
49679;DHT22;35570;48.218;16.326;2024-02-21T09:04:32;11.30;82.80
49679;DHT22;35570;48.218;16.326;2024-02-21T09:06:58;11.70;83.10
49679;DHT22;35570;48.218;16.326;2024-02-21T09:09:24;12.40;79.90
49679;DHT22;35570;48.218;16.326;2024-02-21T09:11:50;12.70;78.20
49679;DHT22;35570;48.218;16.326;2024-02-21T09:14:15;13.20;76.20
49679;DHT22;35570;48.218;16.326;2024-02-21T09:16:41;13.30;74.00
49679;DHT22;35570;48.218;16.326;2024-02-21T09:19:07;13.20;75.10
49679;DHT22;35570;48.218;16.326;2024-02-21T09:21:36;13.30;73.90
49679;DHT22;35570;48.218;16.326;2024-02-21T09:24:01;13.30;73.70
49679;DHT22;35570;48.218;16.326;2024-02-21T09:26:28;13.20;73.50
49679;DHT22;35570;48.218;16.326;2024-02-21T09:28:53;13.10;74.50
49679;DHT22;35570;48.218;16.326;2024-02-21T09:31:19;13.00;73.60
49679;DHT22;35570;48.218;16.326;2024-02-21T09:33:45;12.80;73.80
49679;DHT22;35570;48.218;16.326;2024-02-21T09:36:10;12.80;74.60
49679;DHT22;35570;48.218;16.326;2024-02-21T09:38:36;12.70;74.20
49679;DHT22;35570;48.218;16.326;2024-02-21T09:41:28;12.60;74.90
49679;DHT22;35570;48.218;16.326;2024-02-21T09:43:54;12.90;75.20
49679;DHT22;35570;48.218;16.326;2024-02-21T09:46:23;13.20;73.00
49679;DHT22;35570;48.218;16.326;2024-02-21T09:51:21;14.10;73.00
49679;DHT22;35570;48.218;16.326;2024-02-21T09:53:48;14.30;72.30
49679;DHT22;35570;48.218;16.326;2024-02-21T09:56:14;14.80;70.70
49679;DHT22;35570;48.218;16.326;2024-02-21T09:58:40;15.20;66.30
49679;DHT22;35570;48.218;16.326;2024-02-21T10:01:06;15.40;65.60
49679;DHT22;35570;48.218;16.326;2024-02-21T10:03:34;15.70;64.60
49679;DHT22;35570;48.218;16.326;2024-02-21T10:06:00;16.00;64.90
49679;DHT22;35570;48.218;16.326;2024-02-21T10:08:26;16.50;65.00
49679;DHT22;35570;48.218;16.326;2024-02-21T10:10:52;16.70;61.60
49679;DHT22;35570;48.218;16.326;2024-02-21T10:13:27;16.80;62.30
49679;DHT22;35570;48.218;16.326;2024-02-21T10:16:08;16.70;61.40
49679;DHT22;35570;48.218;16.326;2024-02-21T10:18:34;16.40;61.30
49679;DHT22;35570;48.218;16.326;2024-02-21T10:21:05;16.20;60.60
49679;DHT22;35570;48.218;16.326;2024-02-21T10:23:50;15.60;61.70
49679;DHT22;35570;48.218;16.326;2024-02-21T10:26:20;15.30;64.00
49679;DHT22;35570;48.218;16.326;2024-02-21T10:28:47;15.30;64.00
49679;DHT22;35570;48.218;16.326;2024-02-21T10:31:27;15.20;63.80
49679;DHT22;35570;48.218;16.326;2024-02-21T10:34:01;15.00;64.00
49679;DHT22;35570;48.218;16.326;2024-02-21T10:36:31;14.90;65.60
49679;DHT22;35570;48.218;16.326;2024-02-21T10:38:56;14.90;65.20
49679;DHT22;35570;48.218;16.326;2024-02-21T10:41:23;15.00;66.60
49679;DHT22;35570;48.218;16.326;2024-02-21T10:43:53;15.20;66.20
49679;DHT22;35570;48.218;16.326;2024-02-21T10:46:21;15.20;64.20
49679;DHT22;35570;48.218;16.326;2024-02-21T10:48:48;15.50;64.10
49679;DHT22;35570;48.218;16.326;2024-02-21T10:51:27;15.90;61.00
49679;DHT22;35570;48.218;16.326;2024-02-21T10:54:21;15.70;61.80
49679;DHT22;35570;48.218;16.326;2024-02-21T10:56:50;15.30;63.40
49679;DHT22;35570;48.218;16.326;2024-02-21T10:59:17;15.00;64.00
49679;DHT22;35570;48.218;16.326;2024-02-21T11:01:43;14.80;64.10
49679;DHT22;35570;48.218;16.326;2024-02-21T11:04:11;14.50;65.40
49679;DHT22;35570;48.218;16.326;2024-02-21T11:06:38;14.30;65.50
49679;DHT22;35570;48.218;16.326;2024-02-21T11:09:09;14.10;66.30
49679;DHT22;35570;48.218;16.326;2024-02-21T11:11:38;13.90;67.20
49679;DHT22;35570;48.218;16.326;2024-02-21T11:16:42;13.40;67.50
49679;DHT22;35570;48.218;16.326;2024-02-21T11:19:30;13.10;68.70
49679;DHT22;35570;48.218;16.326;2024-02-21T11:21:57;12.80;68.40
49679;DHT22;35570;48.218;16.326;2024-02-21T11:24:33;12.70;69.30
49679;DHT22;35570;48.218;16.326;2024-02-21T11:27:13;12.50;69.10
49679;DHT22;35570;48.218;16.326;2024-02-21T11:32:48;12.20;70.40
49679;DHT22;35570;48.218;16.326;2024-02-21T11:35:20;12.20;70.80
49679;DHT22;35570;48.218;16.326;2024-02-21T11:37:46;12.20;71.70
49679;DHT22;35570;48.218;16.326;2024-02-21T11:40:12;12.30;71.50
49679;DHT22;35570;48.218;16.326;2024-02-21T11:43:03;12.30;70.70
49679;DHT22;35570;48.218;16.326;2024-02-21T11:45:29;12.50;70.90
49679;DHT22;35570;48.218;16.326;2024-02-21T11:47:55;12.50;71.00
49679;DHT22;35570;48.218;16.326;2024-02-21T11:50:21;12.60;69.60
49679;DHT22;35570;48.218;16.326;2024-02-21T11:52:48;12.60;69.50
49679;DHT22;35570;48.218;16.326;2024-02-21T11:55:15;12.50;69.40
49679;DHT22;35570;48.218;16.326;2024-02-21T11:57:41;12.60;68.90
49679;DHT22;35570;48.218;16.326;2024-02-21T12:00:16;12.60;70.00
49679;DHT22;35570;48.218;16.326;2024-02-21T12:02:43;12.70;67.80
49679;DHT22;35570;48.218;16.326;2024-02-21T12:05:09;12.70;68.20
49679;DHT22;35570;48.218;16.326;2024-02-21T12:07:38;12.60;68.60
49679;DHT22;35570;48.218;16.326;2024-02-21T12:10:13;12.50;67.50
49679;DHT22;35570;48.218;16.326;2024-02-21T12:12:39;12.30;68.80
49679;DHT22;35570;48.218;16.326;2024-02-21T12:15:06;12.30;68.10
49679;DHT22;35570;48.218;16.326;2024-02-21T12:17:35;12.30;68.50
49679;DHT22;35570;48.218;16.326;2024-02-21T12:20:04;12.30;68.10
49679;DHT22;35570;48.218;16.326;2024-02-21T12:22:35;12.30;68.50
49679;DHT22;35570;48.218;16.326;2024-02-21T12:25:18;12.40;67.90
49679;DHT22;35570;48.218;16.326;2024-02-21T12:27:45;12.40;67.80
49679;DHT22;35570;48.218;16.326;2024-02-21T12:30:11;12.40;68.20
49679;DHT22;35570;48.218;16.326;2024-02-21T12:32:37;12.30;68.30
49679;DHT22;35570;48.218;16.326;2024-02-21T12:35:03;12.30;67.60
49679;DHT22;35570;48.218;16.326;2024-02-21T12:37:29;12.30;68.10
49679;DHT22;35570;48.218;16.326;2024-02-21T12:39:55;12.30;67.40
49679;DHT22;35570;48.218;16.326;2024-02-21T12:42:20;12.30;68.50
49679;DHT22;35570;48.218;16.326;2024-02-21T12:44:46;12.30;68.60
49679;DHT22;35570;48.218;16.326;2024-02-21T12:47:12;12.40;68.50
49679;DHT22;35570;48.218;16.326;2024-02-21T12:49:38;12.40;68.60
49679;DHT22;35570;48.218;16.326;2024-02-21T12:52:04;12.50;67.70
49679;DHT22;35570;48.218;16.326;2024-02-21T12:54:29;12.50;67.20
49679;DHT22;35570;48.218;16.326;2024-02-21T12:56:56;12.60;67.20
49679;DHT22;35570;48.218;16.326;2024-02-21T12:59:22;12.80;67.00
49679;DHT22;35570;48.218;16.326;2024-02-21T13:01:48;12.80;66.40
49679;DHT22;35570;48.218;16.326;2024-02-21T13:04:14;13.00;66.80
49679;DHT22;35570;48.218;16.326;2024-02-21T13:06:39;13.20;69.30
49679;DHT22;35570;48.218;16.326;2024-02-21T13:09:05;13.50;68.80
49679;DHT22;35570;48.218;16.326;2024-02-21T13:11:34;13.60;66.60
49679;DHT22;35570;48.218;16.326;2024-02-21T13:14:00;13.70;66.30
49679;DHT22;35570;48.218;16.326;2024-02-21T13:16:25;13.80;65.60
49679;DHT22;35570;48.218;16.326;2024-02-21T13:18:54;14.00;66.70
49679;DHT22;35570;48.218;16.326;2024-02-21T13:21:19;14.30;63.70
49679;DHT22;35570;48.218;16.326;2024-02-21T13:23:45;14.80;64.70
49679;DHT22;35570;48.218;16.326;2024-02-21T13:26:11;15.60;63.80
49679;DHT22;35570;48.218;16.326;2024-02-21T13:28:38;16.20;59.50
49679;DHT22;35570;48.218;16.326;2024-02-21T13:31:21;16.90;58.00
49679;DHT22;35570;48.218;16.326;2024-02-21T13:33:47;17.80;57.50
49679;DHT22;35570;48.218;16.326;2024-02-21T13:36:13;18.60;55.00
49679;DHT22;35570;48.218;16.326;2024-02-21T13:38:38;19.10;53.90
49679;DHT22;35570;48.218;16.326;2024-02-21T13:41:05;19.70;51.10
49679;DHT22;35570;48.218;16.326;2024-02-21T13:43:32;20.00;49.50
49679;DHT22;35570;48.218;16.326;2024-02-21T13:46:01;19.70;49.30
49679;DHT22;35570;48.218;16.326;2024-02-21T13:48:47;18.80;50.10
49679;DHT22;35570;48.218;16.326;2024-02-21T13:51:12;17.90;51.40
49679;DHT22;35570;48.218;16.326;2024-02-21T13:53:38;17.10;52.80
49679;DHT22;35570;48.218;16.326;2024-02-21T13:56:04;16.70;54.00
49679;DHT22;35570;48.218;16.326;2024-02-21T13:58:30;16.40;55.40
49679;DHT22;35570;48.218;16.326;2024-02-21T14:00:55;16.20;55.50
49679;DHT22;35570;48.218;16.326;2024-02-21T14:03:26;16.00;55.40
49679;DHT22;35570;48.218;16.326;2024-02-21T14:05:54;15.70;54.60
49679;DHT22;35570;48.218;16.326;2024-02-21T14:08:20;15.30;55.00
49679;DHT22;35570;48.218;16.326;2024-02-21T14:10:45;15.20;56.50
49679;DHT22;35570;48.218;16.326;2024-02-21T14:13:18;15.50;56.30
49679;DHT22;35570;48.218;16.326;2024-02-21T14:15:44;15.70;54.70
49679;DHT22;35570;48.218;16.326;2024-02-21T14:18:15;15.70;54.40
49679;DHT22;35570;48.218;16.326;2024-02-21T14:20:42;15.60;54.60
49679;DHT22;35570;48.218;16.326;2024-02-21T14:23:08;15.30;55.00
49679;DHT22;35570;48.218;16.326;2024-02-21T14:25:33;15.20;55.90
49679;DHT22;35570;48.218;16.326;2024-02-21T14:27:59;15.10;56.70
49679;DHT22;35570;48.218;16.326;2024-02-21T14:30:27;15.30;56.50
49679;DHT22;35570;48.218;16.326;2024-02-21T14:32:53;15.60;55.10
49679;DHT22;35570;48.218;16.326;2024-02-21T14:35:19;16.00;55.70
49679;DHT22;35570;48.218;16.326;2024-02-21T14:37:45;16.40;55.10
49679;DHT22;35570;48.218;16.326;2024-02-21T14:40:11;16.60;53.50
49679;DHT22;35570;48.218;16.326;2024-02-21T14:42:37;16.60;53.20
49679;DHT22;35570;48.218;16.326;2024-02-21T14:45:03;16.40;53.10
49679;DHT22;35570;48.218;16.326;2024-02-21T14:47:36;16.30;53.60
49679;DHT22;35570;48.218;16.326;2024-02-21T14:50:02;16.20;53.60
49679;DHT22;35570;48.218;16.326;2024-02-21T14:52:30;16.00;53.70
49679;DHT22;35570;48.218;16.326;2024-02-21T14:54:56;15.60;53.00
49679;DHT22;35570;48.218;16.326;2024-02-21T14:57:22;15.20;54.00
49679;DHT22;35570;48.218;16.326;2024-02-21T14:59:48;14.90;54.60
49679;DHT22;35570;48.218;16.326;2024-02-21T15:02:15;14.70;55.00
49679;DHT22;35570;48.218;16.326;2024-02-21T15:04:41;14.60;55.10
49679;DHT22;35570;48.218;16.326;2024-02-21T15:07:06;14.60;55.40
49679;DHT22;35570;48.218;16.326;2024-02-21T15:09:32;14.50;55.80
49679;DHT22;35570;48.218;16.326;2024-02-21T15:11:58;14.50;56.10
49679;DHT22;35570;48.218;16.326;2024-02-21T15:14:24;14.40;56.30
49679;DHT22;35570;48.218;16.326;2024-02-21T15:16:49;14.20;56.50
49679;DHT22;35570;48.218;16.326;2024-02-21T15:19:15;14.00;57.00
49679;DHT22;35570;48.218;16.326;2024-02-21T15:21:41;14.00;59.70
49679;DHT22;35570;48.218;16.326;2024-02-21T15:24:06;14.00;58.20
49679;DHT22;35570;48.218;16.326;2024-02-21T15:26:32;14.00;58.20
49679;DHT22;35570;48.218;16.326;2024-02-21T15:28:57;14.00;58.40
49679;DHT22;35570;48.218;16.326;2024-02-21T15:31:23;13.90;59.50